Bielsa, Aragón

latitud= 42° 37' 48''N |longitud= 000° 13' 29''E
990 metros sobre el nivel del mar | datos mensuales

Fecha, hora, temperatura, viento dirección y velocidad, humedad y presión.

  • 21-06-2018 22:00:00 | 20.90°C | Noroeste |9.00 km/h | 54.00% | 907.70 hPa
  • 21-06-2018 21:00:00 | 23.20°C | Noroeste |9.00 km/h | 47.00% | 907.20 hPa
  • 21-06-2018 20:00:00 | 24.50°C | Noroeste |12.00 km/h | 47.00% | 906.70 hPa
  • 21-06-2018 19:00:00 | 24.80°C | Noroeste |6.00 km/h | 50.00% | 906.10 hPa
  • 21-06-2018 18:00:00 | 28.70°C | Sudeste |5.00 km/h | 40.00% | 905.90 hPa
  • 21-06-2018 17:00:00 | 25.10°C | Noroeste |4.00 km/h | 62.00% | 906.10 hPa
  • 21-06-2018 16:00:00 | 27.50°C | Sudeste |5.00 km/h | 40.00% | 906.10 hPa
  • 21-06-2018 15:00:00 | 28.00°C | Sudeste |5.00 km/h | 42.00% | 906.30 hPa
  • 21-06-2018 14:00:00 | 29.80°C | Sudeste |3.00 km/h | 32.00% | 906.50 hPa
  • 21-06-2018 13:00:00 | 27.00°C | Noroeste |10.00 km/h | 37.00% | 906.90 hPa
  • 21-06-2018 12:00:00 | 26.60°C | Noroeste |9.00 km/h | 37.00% | 907.20 hPa
  • 21-06-2018 11:00:00 | 23.60°C | Norte |5.00 km/h | 58.00% | 907.40 hPa
  • 21-06-2018 10:00:00 | 18.10°C | Calma |0.00 km/h | 82.00% | 907.90 hPa
  • 21-06-2018 09:00:00 | 15.60°C | Norte |3.00 km/h | 91.00% | 908.50 hPa
  • 21-06-2018 08:00:00 | 12.30°C | Calma |0.00 km/h | 94.00% | 908.80 hPa
  • 21-06-2018 07:00:00 | 12.00°C | Calma |0.00 km/h | 94.00% | 908.70 hPa
  • 21-06-2018 06:00:00 | 12.20°C | Noroeste |3.00 km/h | 93.00% | 908.70 hPa
  • 21-06-2018 05:00:00 | 12.70°C | Noroeste |2.00 km/h | 90.00% | 908.80 hPa
  • 21-06-2018 04:00:00 | 12.90°C | Noroeste |3.00 km/h | 90.00% | 909.10 hPa
  • 21-06-2018 03:00:00 | 13.40°C | Calma |0.00 km/h | 89.00% | 909.40 hPa
  • 21-06-2018 02:00:00 | 14.20°C | Noroeste |2.00 km/h | 85.00% | 909.50 hPa
  • 21-06-2018 01:00:00 | 15.00°C | Noroeste |2.00 km/h | 85.00% | 909.30 hPa
  • 21-06-2018 00:00:00 | 15.80°C | Calma |0.00 km/h | 83.00% | 909.20 hPa
  • 20-06-2018 23:00:00 | 17.90°C | Noroeste |2.00 km/h | 79.00% | 908.80 hPa